createdAt,value
2023-02-19T00:01:42.032Z,98796.41
2023-02-19T00:04:15.102Z,98794.19
2023-02-19T00:06:42.352Z,98806.19
2023-02-19T00:09:11.488Z,98794.03
2023-02-19T00:11:39.005Z,98798.03
2023-02-19T00:14:06.598Z,98794.34
2023-02-19T00:16:36.411Z,98798.72
2023-02-19T00:19:05.469Z,98800.25
2023-02-19T00:21:33.739Z,98802.88
2023-02-19T00:24:04.315Z,98806.44
2023-02-19T00:26:31.663Z,98805.78
2023-02-19T00:28:59.103Z,98804.09
2023-02-19T00:31:27.664Z,98802.31
2023-02-19T00:34:00.722Z,98803.97
2023-02-19T00:36:28.644Z,98798.03
2023-02-19T00:38:55.729Z,98790.31
2023-02-19T00:41:24.200Z,98803.13
2023-02-19T00:43:52.624Z,98795.41
2023-02-19T00:46:32.845Z,98785.78
2023-02-19T00:49:00.693Z,98791.44
2023-02-19T00:51:30.553Z,98804.66
2023-02-19T00:53:57.903Z,98799.13
2023-02-19T00:56:25.330Z,98803.56
2023-02-19T00:58:53.046Z,98805.19
2023-02-19T01:01:20.936Z,98807.81
2023-02-19T01:03:49.044Z,98809.03
2023-02-19T01:06:18.180Z,98800.62
2023-02-19T01:08:45.554Z,98796.63
2023-02-19T01:11:13.534Z,98780.63
2023-02-19T01:13:41.612Z,98790.53
2023-02-19T01:16:15.464Z,98797.25
2023-02-19T01:18:43.657Z,98804.41
2023-02-19T01:21:20.599Z,98796.41
2023-02-19T01:23:49.456Z,98790.63
2023-02-19T01:26:19.003Z,98787.19
2023-02-19T01:28:48.419Z,98787.19
2023-02-19T01:31:18.720Z,98788.16
2023-02-19T01:33:47.561Z,98776.84
2023-02-19T01:36:15.545Z,98778.25
2023-02-19T01:38:43.232Z,98778.56
2023-02-19T01:41:13.538Z,98777.19
2023-02-19T01:43:57.131Z,98765.91
2023-02-19T01:46:31.390Z,98766.03
2023-02-19T01:49:18.906Z,98767.69
2023-02-19T01:52:15.177Z,98759.84
2023-02-19T01:54:43.289Z,98759.97
2023-02-19T01:57:16.664Z,98752.94
2023-02-19T01:59:43.966Z,98748.78
2023-02-19T02:02:11.540Z,98752.66
2023-02-19T02:04:39.005Z,98763.16
2023-02-19T02:07:27.147Z,98764.38
2023-02-19T02:10:13.161Z,98761.75
2023-02-19T02:12:40.621Z,98764.22
2023-02-19T02:15:08.291Z,98760.88
2023-02-19T02:17:41.224Z,98763.22
2023-02-19T02:20:27.192Z,98759.75
2023-02-19T02:23:10.725Z,98766.66
2023-02-19T02:25:38.768Z,98777.94
2023-02-19T02:28:16.491Z,98775.31
2023-02-19T02:30:48.040Z,98769.25
2023-02-19T02:33:33.042Z,98772.44
2023-02-19T02:36:17.397Z,98769.53
2023-02-19T02:38:46.553Z,98768.41
2023-02-19T02:41:15.426Z,98770.50
2023-02-19T02:43:42.548Z,98770.50
2023-02-19T02:46:13.558Z,98765.66
2023-02-19T02:48:55.430Z,98756.41
2023-02-19T02:51:29.499Z,98768.09
2023-02-19T02:54:16.457Z,98770.56
2023-02-19T02:56:46.056Z,98770.16
2023-02-19T02:59:19.282Z,98761.19
2023-02-19T03:02:11.908Z,98761.56
2023-02-19T03:05:12.457Z,98754.12
2023-02-19T03:07:45.743Z,98753.72
2023-02-19T03:10:39.631Z,98750.44
2023-02-19T03:13:30.017Z,98752.09
2023-02-19T03:16:20.815Z,98751.25
2023-02-19T03:19:08.859Z,98744.88
2023-02-19T03:21:38.355Z,98756.00
2023-02-19T03:24:28.932Z,98760.53
2023-02-19T03:26:58.183Z,98769.50
2023-02-19T03:29:28.363Z,98768.53
2023-02-19T03:32:02.354Z,98759.81
2023-02-19T03:34:31.797Z,98763.34
2023-02-19T03:37:10.121Z,98752.63
2023-02-19T03:39:44.458Z,98757.59
2023-02-19T03:42:50.264Z,98754.81
2023-02-19T03:45:40.932Z,98741.88
2023-02-19T03:48:08.163Z,98741.81
2023-02-19T03:50:44.198Z,98745.56
2023-02-19T03:53:22.164Z,98746.06
2023-02-19T03:56:16.281Z,98740.84
2023-02-19T03:59:01.885Z,98735.81
2023-02-19T04:01:51.177Z,98737.59
2023-02-19T04:04:24.008Z,98735.37
2023-02-19T04:06:54.618Z,98744.28
2023-02-19T04:09:24.066Z,98734.22
2023-02-19T04:11:52.342Z,98730.41
2023-02-19T04:14:24.403Z,98739.31
2023-02-19T04:16:58.423Z,98742.66
2023-02-19T04:19:27.208Z,98740.59
2023-02-19T04:21:56.602Z,98752.97
2023-02-19T04:24:28.289Z,98749.88
2023-02-19T04:26:56.084Z,98750.59
2023-02-19T04:29:23.245Z,98763.53
2023-02-19T04:31:50.389Z,98759.78
2023-02-19T04:34:17.806Z,98767.34
2023-02-19T04:36:44.921Z,98765.13
2023-02-19T04:39:12.048Z,98770.47
2023-02-19T04:41:39.385Z,98763.47
2023-02-19T04:44:06.448Z,98769.16
2023-02-19T04:46:33.575Z,98762.00
2023-02-19T04:49:01.134Z,98756.47
2023-02-19T04:51:28.298Z,98760.16
2023-02-19T04:53:56.463Z,98758.53
2023-02-19T04:56:23.956Z,98754.62
2023-02-19T04:58:51.026Z,98764.75
2023-02-19T05:01:18.138Z,98762.97
2023-02-19T05:03:45.544Z,98760.34
2023-02-19T05:06:14.029Z,98770.22
2023-02-19T05:08:41.574Z,98762.62
2023-02-19T05:11:10.968Z,98768.22
2023-02-19T05:13:38.999Z,98768.34
2023-02-19T05:16:15.905Z,98768.84
2023-02-19T05:18:45.450Z,98764.09
2023-02-19T05:21:13.289Z,98755.78
2023-02-19T05:23:40.648Z,98763.16
2023-02-19T05:26:23.907Z,98770.06
2023-02-19T05:28:52.781Z,98771.94
2023-02-19T05:31:21.540Z,98763.16
2023-02-19T05:33:51.288Z,98744.78
2023-02-19T05:36:20.629Z,98743.25
2023-02-19T05:38:48.384Z,98745.84
2023-02-19T05:41:17.848Z,98753.47
2023-02-19T05:43:46.465Z,98755.81
2023-02-19T05:46:15.625Z,98758.06
2023-02-19T05:48:42.728Z,98755.78
2023-02-19T05:51:12.592Z,98761.00
2023-02-19T05:53:40.478Z,98768.59
2023-02-19T05:56:37.941Z,98762.88
2023-02-19T05:59:22.772Z,98764.06
2023-02-19T06:01:51.253Z,98766.44
2023-02-19T06:04:20.079Z,98763.69
2023-02-19T06:06:48.247Z,98765.13
2023-02-19T06:09:15.276Z,98757.13
2023-02-19T06:11:43.645Z,98758.28
2023-02-19T06:14:13.538Z,98757.56
2023-02-19T06:16:40.707Z,98761.09
2023-02-19T06:19:08.100Z,98758.34
2023-02-19T06:21:35.303Z,98753.25
2023-02-19T06:24:07.035Z,98760.47
2023-02-19T06:26:34.424Z,98755.38
2023-02-19T06:29:01.498Z,98750.75
2023-02-19T06:31:28.580Z,98753.72
2023-02-19T06:33:55.978Z,98749.00
2023-02-19T06:36:23.695Z,98749.00
2023-02-19T06:38:51.087Z,98746.50
2023-02-19T06:41:18.591Z,98749.81
2023-02-19T06:43:46.599Z,98742.25
2023-02-19T06:46:14.288Z,98739.25
2023-02-19T06:48:43.425Z,98735.69
2023-02-19T06:51:15.796Z,98735.44
2023-02-19T06:53:43.224Z,98737.59
2023-02-19T06:56:31.077Z,98749.69
2023-02-19T06:59:00.375Z,98720.50
2023-02-19T07:01:28.695Z,98732.50
2023-02-19T07:03:55.817Z,98728.28
2023-02-19T07:06:24.630Z,98738.16
2023-02-19T07:08:52.965Z,98744.81
2023-02-19T07:11:20.055Z,98728.59
2023-02-19T07:13:47.411Z,98739.38
2023-02-19T07:16:15.187Z,98745.31
2023-02-19T07:18:42.273Z,98748.16
2023-02-19T07:21:12.776Z,98754.69
2023-02-19T07:23:41.069Z,98749.84
2023-02-19T07:26:16.075Z,98755.19
2023-02-19T07:28:48.192Z,98755.38
2023-02-19T07:31:16.331Z,98752.84
2023-02-19T07:33:44.677Z,98733.91
2023-02-19T07:36:12.215Z,98726.78
2023-02-19T07:38:39.343Z,98736.47
2023-02-19T07:41:07.154Z,98732.84
2023-02-19T07:43:36.524Z,98732.59
2023-02-19T07:46:11.167Z,98734.66
2023-02-19T07:48:39.427Z,98726.69
2023-02-19T07:51:08.797Z,98730.56
2023-02-19T07:53:36.176Z,98731.25
2023-02-19T07:56:05.720Z,98743.78
2023-02-19T07:58:34.183Z,98745.84
2023-02-19T08:01:14.793Z,98751.22
2023-02-19T08:03:42.597Z,98754.09
2023-02-19T08:06:11.328Z,98765.91
2023-02-19T08:08:39.694Z,98770.44
2023-02-19T08:11:26.251Z,98767.38
2023-02-19T08:13:53.915Z,98770.12
2023-02-19T08:16:32.987Z,98780.84
2023-02-19T08:19:04.536Z,98785.28
2023-02-19T08:21:34.306Z,98797.72
2023-02-19T08:24:01.516Z,98787.88
2023-02-19T08:26:28.562Z,98785.97
2023-02-19T08:28:56.100Z,98785.97
2023-02-19T08:31:23.167Z,98780.81
2023-02-19T08:33:50.323Z,98783.75
2023-02-19T08:36:17.641Z,98778.97
2023-02-19T08:38:45.449Z,98763.88
2023-02-19T08:41:14.126Z,98768.28
2023-02-19T08:43:42.396Z,98770.81
2023-02-19T08:46:11.041Z,98770.16
2023-02-19T08:48:39.126Z,98769.84
2023-02-19T08:51:08.692Z,98772.09
2023-02-19T08:53:36.883Z,98782.16
2023-02-19T08:56:08.941Z,98768.81
2023-02-19T08:58:37.478Z,98759.91
2023-02-19T09:01:16.485Z,98761.53
2023-02-19T09:03:43.896Z,98768.72
2023-02-19T09:06:15.103Z,98775.97
2023-02-19T09:08:42.115Z,98778.59
2023-02-19T09:11:09.822Z,98774.56
2023-02-19T09:13:37.187Z,98762.62
2023-02-19T09:16:05.496Z,98770.91
2023-02-19T09:18:33.117Z,98776.91
2023-02-19T09:21:01.802Z,98773.16
2023-02-19T09:23:29.059Z,98773.28
2023-02-19T09:26:00.215Z,98761.81
2023-02-19T09:28:28.045Z,98761.75
2023-02-19T09:30:55.260Z,98764.75
2023-02-19T09:33:22.672Z,98763.22
2023-02-19T09:35:49.780Z,98763.09
2023-02-19T09:38:16.793Z,98763.16
2023-02-19T09:40:44.219Z,98759.56
2023-02-19T09:43:19.870Z,98749.84
2023-02-19T09:45:48.097Z,98754.41
2023-02-19T09:48:15.145Z,98757.19
2023-02-19T09:50:48.059Z,98757.78
2023-02-19T09:53:26.014Z,98755.66
2023-02-19T09:55:53.494Z,98749.69
2023-02-19T09:58:44.305Z,98755.22
2023-02-19T10:01:13.495Z,98745.38
2023-02-19T10:03:44.684Z,98740.41
2023-02-19T10:06:23.678Z,98724.94
2023-02-19T10:09:00.404Z,98733.31
2023-02-19T10:11:27.568Z,98734.38
2023-02-19T10:14:10.932Z,98729.34
2023-02-19T10:16:42.528Z,98722.16
2023-02-19T10:19:11.159Z,98733.16
2023-02-19T10:21:38.564Z,98724.03
2023-02-19T10:24:06.484Z,98720.72
2023-02-19T10:26:35.333Z,98725.94
2023-02-19T10:29:05.565Z,98721.56
2023-02-19T10:31:33.493Z,98721.91
2023-02-19T10:34:02.072Z,98714.84
2023-02-19T10:36:32.594Z,98711.78
2023-02-19T10:39:01.643Z,98706.37
2023-02-19T10:41:29.071Z,98701.34
2023-02-19T10:44:05.073Z,98697.09
2023-02-19T10:46:35.869Z,98698.88
2023-02-19T10:49:05.975Z,98704.72
2023-02-19T10:51:37.159Z,98680.72
2023-02-19T10:54:16.823Z,98696.84
2023-02-19T10:56:44.346Z,98686.34
2023-02-19T10:59:18.511Z,98685.88
2023-02-19T11:02:03.663Z,98675.03
2023-02-19T11:04:38.042Z,98678.66
2023-02-19T11:07:17.113Z,98667.91
2023-02-19T11:09:46.165Z,98672.19
2023-02-19T11:12:14.589Z,98666.34
2023-02-19T11:14:43.967Z,98668.78
2023-02-19T11:17:24.209Z,98650.41
2023-02-19T11:20:00.872Z,98650.66
2023-02-19T11:22:31.982Z,98653.09
2023-02-19T11:25:20.535Z,98646.81
2023-02-19T11:28:16.806Z,98651.53
2023-02-19T11:30:45.639Z,98650.34
2023-02-19T11:33:20.074Z,98663.59
2023-02-19T11:35:49.334Z,98652.56
2023-02-19T11:38:18.143Z,98650.41
2023-02-19T11:41:06.120Z,98648.53
2023-02-19T11:44:07.787Z,98637.88
2023-02-19T11:46:46.748Z,98643.59
2023-02-19T11:49:26.852Z,98647.50
2023-02-19T11:52:15.414Z,98652.03
2023-02-19T11:55:04.891Z,98650.34
2023-02-19T11:57:47.496Z,98638.94
2023-02-19T12:00:28.697Z,98625.00
2023-02-19T12:03:49.979Z,98634.56
2023-02-19T12:06:28.659Z,98629.63
2023-02-19T12:09:21.383Z,98616.78
2023-02-19T12:12:09.809Z,98620.38
2023-02-19T12:14:45.801Z,98613.53
2023-02-19T12:17:48.175Z,98596.09
2023-02-19T12:20:42.096Z,98611.56
2023-02-19T12:23:27.112Z,98597.44
2023-02-19T12:26:13.065Z,98579.50
2023-02-19T12:28:55.378Z,98605.50
2023-02-19T12:31:28.213Z,98598.28
2023-02-19T12:34:19.487Z,98597.97
2023-02-19T12:37:01.791Z,98606.22
2023-02-19T12:39:59.474Z,98595.16
2023-02-19T12:43:21.035Z,98592.16
2023-02-19T12:45:59.051Z,98583.44
2023-02-19T12:49:11.037Z,98574.56
2023-02-19T12:51:55.287Z,98583.37
2023-02-19T12:54:44.175Z,98585.41
2023-02-19T12:57:22.848Z,98573.69
2023-02-19T13:00:04.907Z,98577.41
2023-02-19T13:02:45.694Z,98570.81
2023-02-19T13:05:18.755Z,98575.53
2023-02-19T13:07:56.677Z,98578.22
2023-02-19T13:10:26.996Z,98563.56
2023-02-19T13:12:55.020Z,98555.50
2023-02-19T13:15:31.762Z,98550.53
2023-02-19T13:18:01.556Z,98541.28
2023-02-19T13:20:36.775Z,98548.88
2023-02-19T13:23:46.717Z,98537.50
2023-02-19T13:26:35.520Z,98516.06
2023-02-19T13:29:40.440Z,98514.28
2023-02-19T13:32:16.883Z,98513.81
2023-02-19T13:35:06.195Z,98507.03
2023-02-19T13:37:36.536Z,98509.50
2023-02-19T13:40:07.311Z,98487.13
2023-02-19T13:42:35.966Z,98510.19
2023-02-19T13:45:05.510Z,98491.87
2023-02-19T13:47:54.098Z,98495.03
2023-02-19T13:50:27.246Z,98499.84
2023-02-19T13:52:56.353Z,98491.13
2023-02-19T13:55:52.025Z,98520.75
2023-02-19T13:58:53.175Z,98524.00
2023-02-19T14:01:55.523Z,98542.41
2023-02-19T14:04:22.879Z,98595.44
2023-02-19T14:07:12.972Z,98621.78
2023-02-19T14:09:40.594Z,98622.13
2023-02-19T14:12:07.538Z,98626.25
2023-02-19T14:14:35.638Z,98648.75
2023-02-19T14:17:09.017Z,98662.50
2023-02-19T14:19:41.753Z,98669.56
2023-02-19T14:22:46.128Z,98656.53
2023-02-19T14:25:30.895Z,98657.16
2023-02-19T14:28:03.229Z,98659.31
2023-02-19T14:30:32.262Z,98663.00
2023-02-19T14:33:10.100Z,98668.75
2023-02-19T14:35:41.502Z,98668.88
2023-02-19T14:38:17.230Z,98646.56
2023-02-19T14:40:46.553Z,98652.37
2023-02-19T14:43:15.763Z,98633.62
2023-02-19T14:45:45.568Z,98635.28
2023-02-19T14:48:23.816Z,98626.53
2023-02-19T14:50:56.121Z,98626.44
2023-02-19T14:53:23.953Z,98624.56
2023-02-19T14:55:51.767Z,98614.75
2023-02-19T14:58:32.088Z,98620.25
2023-02-19T15:01:00.087Z,98614.75
2023-02-19T15:03:31.006Z,98608.19
2023-02-19T15:06:05.204Z,98614.37
2023-02-19T15:08:36.369Z,98630.16
2023-02-19T15:11:04.598Z,98653.19
2023-02-19T15:13:32.016Z,98691.66
2023-02-19T15:15:59.632Z,98697.34
2023-02-19T15:18:27.583Z,98678.03
2023-02-19T15:21:00.491Z,98678.97
2023-02-19T15:23:30.790Z,98680.25
2023-02-19T15:25:58.525Z,98685.22
2023-02-19T15:28:25.530Z,98669.56
2023-02-19T15:30:59.121Z,98670.53
2023-02-19T15:33:27.469Z,98684.03
2023-02-19T15:35:56.815Z,98685.03
2023-02-19T15:38:24.119Z,98699.50
2023-02-19T15:40:51.365Z,98708.81
2023-02-19T15:43:37.390Z,98706.69
2023-02-19T15:46:24.900Z,98693.94
2023-02-19T15:49:09.664Z,98709.19
2023-02-19T15:51:59.856Z,98707.69
2023-02-19T15:54:50.106Z,98707.44
2023-02-19T15:57:22.827Z,98704.63
2023-02-19T15:59:55.945Z,98723.84
2023-02-19T16:02:23.243Z,98710.78
2023-02-19T16:04:50.617Z,98712.44
2023-02-19T16:07:37.904Z,98716.94
2023-02-19T16:10:25.882Z,98714.34
2023-02-19T16:12:57.789Z,98726.44
2023-02-19T16:15:26.711Z,98747.78
2023-02-19T16:17:54.126Z,98743.53
2023-02-19T16:20:24.352Z,98743.97
2023-02-19T16:22:52.443Z,98731.09
2023-02-19T16:25:31.341Z,98737.28
2023-02-19T16:27:58.823Z,98749.81
2023-02-19T16:30:33.760Z,98744.37
2023-02-19T16:33:21.572Z,98749.03
2023-02-19T16:35:49.799Z,98758.19
2023-02-19T16:38:17.898Z,98757.13
2023-02-19T16:40:48.037Z,98759.75
2023-02-19T16:43:15.139Z,98760.47
2023-02-19T16:45:45.950Z,98763.91
2023-02-19T16:48:13.704Z,98779.22
2023-02-19T16:50:41.527Z,98770.41
2023-02-19T16:53:18.769Z,98774.59
2023-02-19T16:55:46.028Z,98780.97
2023-02-19T16:58:13.536Z,98786.34
2023-02-19T17:00:40.682Z,98793.81
2023-02-19T17:03:10.806Z,98786.34
2023-02-19T17:05:39.725Z,98784.31
2023-02-19T17:08:23.632Z,98801.16
2023-02-19T17:10:50.948Z,98805.78
2023-02-19T17:13:17.958Z,98809.84
2023-02-19T17:15:44.983Z,98789.00
2023-02-19T17:18:12.800Z,98783.94
2023-02-19T17:20:40.659Z,98787.13
2023-02-19T17:23:07.653Z,98794.47
2023-02-19T17:25:34.926Z,98792.00
2023-02-19T17:28:01.949Z,98788.69
2023-02-19T17:30:31.730Z,98783.31
2023-02-19T17:32:59.172Z,98773.13
2023-02-19T17:35:26.389Z,98766.13
2023-02-19T17:37:53.628Z,98781.66
2023-02-19T17:40:32.675Z,98779.16
2023-02-19T17:43:00.898Z,98795.44
2023-02-19T17:45:28.341Z,98804.22
2023-02-19T17:47:55.370Z,98808.81
2023-02-19T17:50:25.864Z,98821.72
2023-02-19T17:52:53.219Z,98815.69
2023-02-19T17:55:20.461Z,98840.06
2023-02-19T17:57:48.772Z,98842.22
2023-02-19T18:00:22.006Z,98837.97
2023-02-19T18:02:49.486Z,98840.81
2023-02-19T18:05:16.882Z,98837.41
2023-02-19T18:07:44.730Z,98824.03
2023-02-19T18:10:12.728Z,98817.25
2023-02-19T18:12:40.075Z,98813.38
2023-02-19T18:15:08.596Z,98812.63
2023-02-19T18:17:36.139Z,98819.22
2023-02-19T18:20:06.236Z,98817.06
2023-02-19T18:22:33.687Z,98820.66
2023-02-19T18:25:01.094Z,98831.28
2023-02-19T18:27:28.225Z,98837.16
2023-02-19T18:29:56.330Z,98830.97
2023-02-19T18:32:25.100Z,98840.97
2023-02-19T18:34:54.451Z,98859.03
2023-02-19T18:37:22.755Z,98857.47
2023-02-19T18:39:50.464Z,98859.38
2023-02-19T18:42:17.626Z,98869.16
2023-02-19T18:44:47.471Z,98864.16
2023-02-19T18:47:15.329Z,98859.69
2023-02-19T18:49:47.176Z,98872.19
2023-02-19T18:52:14.936Z,98879.28
2023-02-19T18:54:43.265Z,98891.69
2023-02-19T18:57:10.358Z,98904.06
2023-02-19T18:59:40.217Z,98910.28
2023-02-19T19:02:10.891Z,98903.56
2023-02-19T19:04:38.867Z,98916.78
2023-02-19T19:07:06.686Z,98917.81
2023-02-19T19:09:34.327Z,98938.72
2023-02-19T19:12:02.444Z,98927.81
2023-02-19T19:14:29.633Z,98930.53
2023-02-19T19:16:56.756Z,98939.06
2023-02-19T19:19:24.182Z,98939.66
2023-02-19T19:21:54.416Z,98934.87
2023-02-19T19:24:22.566Z,98940.09
2023-02-19T19:26:50.918Z,98945.81
2023-02-19T19:29:19.669Z,98952.97
2023-02-19T19:31:46.859Z,98949.87
2023-02-19T19:34:14.588Z,98969.00
2023-02-19T19:36:41.653Z,98968.50
2023-02-19T19:39:09.220Z,98985.75
2023-02-19T19:41:36.692Z,99005.31
2023-02-19T19:44:05.276Z,99006.25
2023-02-19T19:46:33.100Z,99022.38
2023-02-19T19:49:00.618Z,99027.78
2023-02-19T19:51:32.018Z,99021.97
2023-02-19T19:53:59.129Z,99023.22
2023-02-19T19:56:26.572Z,99041.41
2023-02-19T19:58:53.705Z,99027.09
2023-02-19T20:01:21.358Z,99029.12
2023-02-19T20:03:49.317Z,99025.41
2023-02-19T20:06:27.084Z,99028.91
2023-02-19T20:08:54.807Z,99027.78
2023-02-19T20:11:22.088Z,99042.94
2023-02-19T20:13:49.192Z,99041.03
2023-02-19T20:16:16.669Z,99046.56
2023-02-19T20:18:43.782Z,99053.09
2023-02-19T20:21:11.411Z,99055.06
2023-02-19T20:23:42.056Z,99051.72
2023-02-19T20:26:09.195Z,99058.88
2023-02-19T20:28:37.511Z,99074.56
2023-02-19T20:31:05.109Z,99074.16
2023-02-19T20:33:32.179Z,99093.25
2023-02-19T20:35:59.252Z,99106.56
2023-02-19T20:38:26.797Z,99095.34
2023-02-19T20:40:53.918Z,99093.66
2023-02-19T20:43:21.152Z,99121.81
2023-02-19T20:45:48.535Z,99106.69
2023-02-19T20:48:16.959Z,99102.31
2023-02-19T20:50:44.228Z,99119.31
2023-02-19T20:53:11.696Z,99114.41
2023-02-19T20:55:38.923Z,99131.66
2023-02-19T20:58:05.983Z,99130.94
2023-02-19T21:00:33.363Z,99113.31
2023-02-19T21:03:00.468Z,99117.31
2023-02-19T21:05:27.582Z,99116.47
2023-02-19T21:07:54.928Z,99124.00
2023-02-19T21:10:22.135Z,99114.16
2023-02-19T21:12:50.649Z,99110.72
2023-02-19T21:15:18.487Z,99106.09
2023-02-19T21:17:47.061Z,99105.62
2023-02-19T21:20:14.838Z,99098.31
2023-02-19T21:22:42.300Z,99074.75
2023-02-19T21:25:09.856Z,99092.81
2023-02-19T21:27:37.345Z,99093.28
2023-02-19T21:30:06.177Z,99089.38
2023-02-19T21:32:33.305Z,99092.41
2023-02-19T21:35:00.532Z,99094.19
2023-02-19T21:37:27.976Z,99090.25
2023-02-19T21:39:55.622Z,99116.56
2023-02-19T21:42:22.710Z,99117.00
2023-02-19T21:44:50.107Z,99118.19
2023-02-19T21:47:17.198Z,99097.53
2023-02-19T21:49:44.368Z,99105.31
2023-02-19T21:52:11.820Z,99126.38
2023-02-19T21:54:38.915Z,99124.22
2023-02-19T21:57:06.065Z,99130.41
2023-02-19T21:59:33.470Z,99126.25
2023-02-19T22:02:00.567Z,99119.41
2023-02-19T22:04:28.011Z,99138.63
2023-02-19T22:06:56.098Z,99142.75
2023-02-19T22:09:23.154Z,99143.75
2023-02-19T22:11:50.522Z,99141.16
2023-02-19T22:14:17.654Z,99153.59
2023-02-19T22:16:44.882Z,99152.09
2023-02-19T22:19:12.839Z,99159.28
2023-02-19T22:21:43.060Z,99167.47
2023-02-19T22:24:18.056Z,99174.97
2023-02-19T22:26:46.056Z,99177.97
2023-02-19T22:29:14.949Z,99180.81
2023-02-19T22:31:42.231Z,99185.34
2023-02-19T22:34:09.651Z,99197.84
2023-02-19T22:36:40.498Z,99227.16
2023-02-19T22:39:10.622Z,99224.59
2023-02-19T22:41:42.292Z,99233.56
2023-02-19T22:44:10.483Z,99238.00
2023-02-19T22:46:37.842Z,99246.84
2023-02-19T22:49:05.929Z,99238.06
2023-02-19T22:51:35.445Z,99255.91
2023-02-19T22:54:02.837Z,99231.63
2023-02-19T22:56:30.066Z,99231.78
2023-02-19T22:58:58.716Z,99218.75
2023-02-19T23:01:26.181Z,99210.06
2023-02-19T23:03:58.082Z,99226.75
2023-02-19T23:06:30.516Z,99252.16
2023-02-19T23:08:59.454Z,99219.31
2023-02-19T23:11:29.665Z,99216.91
2023-02-19T23:13:57.698Z,99214.28
2023-02-19T23:16:24.948Z,99198.59
2023-02-19T23:18:52.427Z,99216.31
2023-02-19T23:21:20.492Z,99204.59
2023-02-19T23:23:47.934Z,99212.38
2023-02-19T23:26:16.037Z,99203.00
2023-02-19T23:28:43.829Z,99212.59
2023-02-19T23:31:11.387Z,99221.97
2023-02-19T23:33:39.223Z,99226.53
2023-02-19T23:36:06.832Z,99237.09
2023-02-19T23:38:34.110Z,99271.72
2023-02-19T23:41:01.588Z,99237.03
2023-02-19T23:43:28.769Z,99266.47
2023-02-19T23:45:55.990Z,99259.50
2023-02-19T23:48:23.337Z,99276.44
2023-02-19T23:50:50.426Z,99304.31
2023-02-19T23:53:17.643Z,99295.94
2023-02-19T23:55:45.035Z,99303.94
2023-02-19T23:58:12.210Z,99322.56
